Time;durP1;ratioP1;P1;durP2;ratioP2;P2;SDS_P1;SDS_P2;PMS_P1;PMS_P2;Temp;Humidity;BMP_temperature;BMP_pressure;BME280_temperature;BME280_humidity;BME280_pressure;Samples;Min_cycle;Max_cycle;Signal;HPM_P1;HPM_P2
2022/02/11 00:08:03;;;;;;;4.32;1.40;;;;;;;;;;4913650;28;20047;-78
2022/02/11 00:10:31;;;;;;;3.83;1.30;;;;;;;;;;4990385;28;20035;-78
2022/02/11 00:13:02;;;;;;;6.53;1.58;;;;;;;;;;4984418;28;20038;-78
2022/02/11 00:15:40;;;;;;;5.63;1.83;;;;;;;;;;4985223;28;20046;-78
2022/02/11 00:18:11;;;;;;;3.80;1.80;;;;;;;;;;4984145;28;20049;-78
2022/02/11 00:20:43;;;;;;;5.47;1.38;;;;;;;;;;4986843;28;20050;-79
2022/02/11 00:23:12;;;;;;;3.50;1.75;;;;;;;;;;4982973;28;20034;-78
2022/02/11 00:25:48;;;;;;;3.67;1.77;;;;;;;;;;4971422;28;20046;-79
2022/02/11 00:34:11;;;;;;;7.50;1.60;;;;;;;;;;4984149;28;20051;-78
2022/02/11 00:36:44;;;;;;;5.20;1.50;;;;;;;;;;4988080;28;20046;-78
2022/02/11 00:39:58;;;;;;;3.60;1.45;;;;;;;;;;4967651;28;20050;-78
2022/02/11 00:45:40;;;;;;;4.38;1.77;;;;;;;;;;4947952;28;20494;-78
2022/02/11 01:02:18;;;;;;;3.72;1.45;;;;;;;;;;4950921;28;20070;-78
2022/02/11 01:04:52;;;;;;;4.07;1.30;;;;;;;;;;4967595;28;20508;-78
2022/02/11 01:07:23;;;;;;;5.20;1.67;;;;;;;;;;4988279;28;20045;-78
2022/02/11 01:09:53;;;;;;;3.87;1.77;;;;;;;;;;4984877;28;20039;-78
2022/02/11 01:12:22;;;;;;;5.00;1.77;;;;;;;;;;4967047;28;20138;-79
2022/02/11 01:14:53;;;;;;;4.00;1.42;;;;;;;;;;4985747;28;20537;-77
2022/02/11 01:17:30;;;;;;;3.60;1.48;;;;;;;;;;4968172;28;20070;-78
2022/02/11 01:20:05;;;;;;;3.72;1.70;;;;;;;;;;4967956;28;20756;-78
2022/02/11 01:28:33;;;;;;;4.72;2.05;;;;;;;;;;4946781;28;20059;-78
2022/02/11 01:31:11;;;;;;;5.40;1.77;;;;;;;;;;4984483;28;20729;-78
2022/02/11 01:34:12;;;;;;;3.35;1.65;;;;;;;;;;4988066;28;20038;-78
2022/02/11 01:37:01;;;;;;;3.67;1.50;;;;;;;;;;4989282;28;20134;-78
2022/02/11 01:40:08;;;;;;;5.88;1.65;;;;;;;;;;4981481;28;20742;-79
2022/02/11 01:51:28;;;;;;;3.70;1.80;;;;;;;;;;4983803;28;20142;-78
2022/02/11 01:54:04;;;;;;;5.00;1.50;;;;;;;;;;4983322;28;20040;-78
2022/02/11 01:56:44;;;;;;;3.28;1.58;;;;;;;;;;4967582;28;20057;-78
2022/02/11 02:05:37;;;;;;;2.77;1.50;;;;;;;;;;4980743;28;20117;-78
2022/02/11 02:14:11;;;;;;;5.60;1.92;;;;;;;;;;4960244;28;20047;-78
2022/02/11 02:17:36;;;;;;;4.05;1.55;;;;;;;;;;4974172;28;20054;-78
2022/02/11 02:23:03;;;;;;;6.00;2.30;;;;;;;;;;4909849;29;20123;-78
2022/02/11 02:25:40;;;;;;;5.07;1.88;;;;;;;;;;4908721;29;20056;-78
2022/02/11 02:28:48;;;;;;;4.95;1.60;;;;;;;;;;4958583;28;20058;-78
2022/02/11 02:34:17;;;;;;;4.90;1.70;;;;;;;;;;4980487;28;20042;-78
2022/02/11 02:37:14;;;;;;;3.45;1.88;;;;;;;;;;4979565;28;20130;-78
2022/02/11 02:56:52;;;;;;;2.95;1.50;;;;;;;;;;4960178;28;20186;-79
2022/02/11 02:59:52;;;;;;;3.92;1.77;;;;;;;;;;4962311;28;20043;-79
2022/02/11 03:50:16;;;;;;;4.68;1.35;;;;;;;;;;4940719;28;20047;-78
2022/02/11 03:59:13;;;;;;;2.63;1.00;;;;;;;;;;4948823;28;20081;-78
2022/02/11 04:55:04;;;;;;;7.20;1.10;;;;;;;;;;4919054;29;20131;-78
2022/02/11 05:00:22;;;;;;;2.35;0.70;;;;;;;;;;4916447;29;21408;-78
2022/02/11 05:02:55;;;;;;;3.42;1.27;;;;;;;;;;4915869;29;20199;-78
2022/02/11 05:05:51;;;;;;;1.92;0.90;;;;;;;;;;4936726;28;20962;-79
2022/02/11 05:08:21;;;;;;;2.40;0.87;;;;;;;;;;4988960;28;20509;-78
2022/02/11 05:10:52;;;;;;;1.90;1.00;;;;;;;;;;4977909;28;20050;-77
2022/02/11 05:13:22;;;;;;;1.90;0.57;;;;;;;;;;4979084;28;20034;-77
2022/02/11 05:15:52;;;;;;;1.65;0.60;;;;;;;;;;4985603;28;20084;-77
2022/02/11 05:18:22;;;;;;;1.83;0.60;;;;;;;;;;4971804;28;20045;-79
2022/02/11 05:20:54;;;;;;;0.90;0.30;;;;;;;;;;5001438;28;20050;-80
2022/02/11 05:23:54;;;;;;;2.15;0.47;;;;;;;;;;4974310;28;20054;-79
2022/02/11 05:26:23;;;;;;;0.50;0.10;;;;;;;;;;4986443;28;20046;-78
2022/02/11 05:28:55;;;;;;;0.88;0.40;;;;;;;;;;4999320;28;21200;-78
2022/02/11 05:31:31;;;;;;;0.60;0.20;;;;;;;;;;4981460;28;20054;-78
2022/02/11 05:34:00;;;;;;;0.10;0.00;;;;;;;;;;4988676;28;20045;-77
2022/02/11 05:36:28;;;;;;;0.43;0.10;;;;;;;;;;4989238;28;20051;-77
2022/02/11 05:38:57;;;;;;;0.40;0.03;;;;;;;;;;4980597;28;20046;-77
2022/02/11 05:41:26;;;;;;;0.68;0.15;;;;;;;;;;4972549;28;20060;-78
2022/02/11 05:43:56;;;;;;;0.35;0.05;;;;;;;;;;4975627;28;20122;-79
2022/02/11 05:46:27;;;;;;;0.83;0.20;;;;;;;;;;4997627;28;20069;-79
2022/02/11 05:48:58;;;;;;;1.30;0.40;;;;;;;;;;4978819;28;20076;-79
2022/02/11 05:51:26;;;;;;;0.65;0.30;;;;;;;;;;4986987;28;20123;-78
2022/02/11 05:53:55;;;;;;;0.38;0.20;;;;;;;;;;4988118;28;20464;-78
2022/02/11 05:56:24;;;;;;;1.15;0.20;;;;;;;;;;4987172;28;20514;-80
2022/02/11 05:58:53;;;;;;;1.00;0.50;;;;;;;;;;4974034;28;20031;-82
2022/02/11 06:22:05;;;;;;;0.43;0.10;;;;;;;;;;4936530;28;20050;-79
2022/02/11 06:24:34;;;;;;;0.30;0.08;;;;;;;;;;4951423;28;20422;-79
2022/02/11 06:27:06;;;;;;;0.63;0.20;;;;;;;;;;4949440;28;20521;-78
2022/02/11 06:30:00;;;;;;;0.43;0.10;;;;;;;;;;4951274;28;20147;-78
2022/02/11 06:32:30;;;;;;;1.05;0.30;;;;;;;;;;4955155;28;20055;-78
2022/02/11 06:34:58;;;;;;;0.93;0.25;;;;;;;;;;4949564;28;20070;-78
2022/02/11 06:37:30;;;;;;;2.45;0.52;;;;;;;;;;4944332;28;20043;-80
2022/02/11 06:39:59;;;;;;;0.77;0.30;;;;;;;;;;4932673;29;20448;-80
2022/02/11 06:42:28;;;;;;;0.63;0.10;;;;;;;;;;4933863;29;20077;-80
2022/02/11 06:44:56;;;;;;;0.60;0.20;;;;;;;;;;4949808;28;20118;-80
2022/02/11 06:47:25;;;;;;;1.25;0.40;;;;;;;;;;4934271;29;20055;-80
2022/02/11 06:49:54;;;;;;;0.35;0.10;;;;;;;;;;4948064;28;20040;-80
2022/02/11 06:52:23;;;;;;;0.60;0.10;;;;;;;;;;4952102;29;20454;-80
2022/02/11 06:54:54;;;;;;;1.30;0.50;;;;;;;;;;4932477;29;20118;-80
2022/02/11 06:57:23;;;;;;;0.82;0.20;;;;;;;;;;4936546;29;20054;-78
2022/02/11 06:59:52;;;;;;;2.25;0.63;;;;;;;;;;4951994;28;20105;-78
2022/02/11 07:02:21;;;;;;;1.02;0.68;;;;;;;;;;4929900;29;20082;-78
2022/02/11 07:04:50;;;;;;;8.30;0.73;;;;;;;;;;4947073;28;20537;-80
2022/02/11 07:07:19;;;;;;;1.10;0.20;;;;;;;;;;4946492;28;20054;-80
2022/02/11 07:09:51;;;;;;;1.20;0.40;;;;;;;;;;4948065;28;20379;-79
2022/02/11 07:12:22;;;;;;;0.98;0.60;;;;;;;;;;4932454;29;20058;-78
2022/02/11 07:14:51;;;;;;;0.88;0.30;;;;;;;;;;4948441;28;20067;-78
2022/02/11 07:17:20;;;;;;;1.10;0.60;;;;;;;;;;4943287;28;20059;-78
2022/02/11 07:19:49;;;;;;;8.68;1.02;;;;;;;;;;4949741;28;20067;-78
2022/02/11 07:22:18;;;;;;;2.33;0.73;;;;;;;;;;4948103;28;20031;-78
2022/02/11 07:24:49;;;;;;;1.45;0.40;;;;;;;;;;4954963;28;20039;-78
2022/02/11 07:27:23;;;;;;;1.92;0.50;;;;;;;;;;4953503;28;20442;-79
2022/02/11 07:29:52;;;;;;;2.53;0.60;;;;;;;;;;4952870;28;20311;-78
2022/02/11 07:32:21;;;;;;;1.40;0.50;;;;;;;;;;4948157;28;20055;-79
2022/02/11 07:34:50;;;;;;;0.98;0.45;;;;;;;;;;4955253;28;20111;-78
2022/02/11 07:37:18;;;;;;;1.25;0.40;;;;;;;;;;4949051;29;20065;-78
2022/02/11 07:39:54;;;;;;;1.85;0.63;;;;;;;;;;4952305;28;20137;-77
2022/02/11 07:42:25;;;;;;;1.57;0.67;;;;;;;;;;4950523;28;20400;-78
2022/02/11 07:44:54;;;;;;;2.63;0.68;;;;;;;;;;4917217;29;20043;-78
2022/02/11 07:47:23;;;;;;;1.48;0.57;;;;;;;;;;4946095;28;20427;-78
2022/02/11 07:49:53;;;;;;;1.95;0.50;;;;;;;;;;4947855;28;20118;-78
2022/02/11 07:52:22;;;;;;;1.05;0.35;;;;;;;;;;4935349;29;20055;-79
2022/02/11 07:54:52;;;;;;;1.53;0.60;;;;;;;;;;4938755;28;20099;-78
2022/02/11 07:57:20;;;;;;;1.55;0.63;;;;;;;;;;4949984;28;20035;-78
2022/02/11 07:59:50;;;;;;;1.67;0.73;;;;;;;;;;4932709;29;20043;-78
2022/02/11 08:02:21;;;;;;;3.90;1.38;;;;;;;;;;4943719;28;20060;-78
2022/02/11 08:04:50;;;;;;;2.38;0.82;;;;;;;;;;4947255;29;20114;-78
2022/02/11 08:07:20;;;;;;;1.53;0.63;;;;;;;;;;4947887;28;20507;-78
2022/02/11 08:09:48;;;;;;;2.88;0.98;;;;;;;;;;4951836;28;20047;-78
2022/02/11 08:12:17;;;;;;;3.67;1.23;;;;;;;;;;4947381;28;20056;-77
2022/02/11 08:14:53;;;;;;;1.85;0.75;;;;;;;;;;4953477;28;20103;-78
2022/02/11 08:17:27;;;;;;;2.17;0.50;;;;;;;;;;4946892;28;20428;-78
2022/02/11 08:19:57;;;;;;;3.37;0.90;;;;;;;;;;4956420;28;20062;-78
2022/02/11 08:22:27;;;;;;;1.15;0.65;;;;;;;;;;4946487;28;20043;-78
2022/02/11 08:24:57;;;;;;;1.67;0.52;;;;;;;;;;4952116;28;20082;-78
2022/02/11 08:27:29;;;;;;;3.55;1.15;;;;;;;;;;4948612;28;20498;-78
2022/02/11 08:29:59;;;;;;;2.30;0.95;;;;;;;;;;4946380;28;20050;-78
2022/02/11 08:32:30;;;;;;;2.77;0.87;;;;;;;;;;4943383;28;20055;-78
2022/02/11 08:34:59;;;;;;;2.13;0.60;;;;;;;;;;4936415;28;20070;-78
2022/02/11 08:37:28;;;;;;;2.35;1.10;;;;;;;;;;4949245;28;20043;-78
2022/02/11 08:39:57;;;;;;;2.38;0.80;;;;;;;;;;4948403;28;20062;-78
2022/02/11 08:42:25;;;;;;;0.80;0.30;;;;;;;;;;4939982;29;20075;-78
2022/02/11 08:44:54;;;;;;;2.03;0.70;;;;;;;;;;4953906;28;20043;-77
2022/02/11 08:47:27;;;;;;;1.50;0.77;;;;;;;;;;4930662;28;20775;-77
2022/02/11 08:49:59;;;;;;;6.53;1.05;;;;;;;;;;4950114;28;20051;-78
2022/02/11 08:52:32;;;;;;;5.55;1.60;;;;;;;;;;4945346;28;20043;-78
2022/02/11 08:55:01;;;;;;;2.03;0.80;;;;;;;;;;4949032;28;20051;-77
2022/02/11 08:57:35;;;;;;;17.67;1.37;;;;;;;;;;4946052;28;20047;-78
2022/02/11 09:00:06;;;;;;;2.00;0.80;;;;;;;;;;4945217;28;20102;-78
2022/02/11 09:02:36;;;;;;;2.75;1.48;;;;;;;;;;4944966;28;20166;-78
2022/02/11 09:05:07;;;;;;;1.60;0.68;;;;;;;;;;4948613;28;20051;-77
2022/02/11 09:07:36;;;;;;;4.07;1.23;;;;;;;;;;4947545;28;20390;-78
2022/02/11 09:10:07;;;;;;;3.40;1.70;;;;;;;;;;4943126;28;20577;-77
2022/02/11 09:12:36;;;;;;;2.05;0.73;;;;;;;;;;4954085;28;20021;-78
2022/02/11 09:15:07;;;;;;;2.90;0.75;;;;;;;;;;4946256;28;20043;-77
2022/02/11 09:17:36;;;;;;;0.80;0.40;;;;;;;;;;4944719;28;20059;-78
2022/02/11 09:20:05;;;;;;;1.90;0.73;;;;;;;;;;4944633;28;20099;-77
2022/02/11 09:22:35;;;;;;;1.70;0.63;;;;;;;;;;4950309;28;20193;-77
2022/02/11 09:25:06;;;;;;;4.43;1.30;;;;;;;;;;4950741;28;20177;-80
2022/02/11 09:27:42;;;;;;;1.33;0.50;;;;;;;;;;4954026;28;20082;-78
2022/02/11 09:30:12;;;;;;;1.88;0.65;;;;;;;;;;4943696;28;20091;-78
2022/02/11 09:32:56;;;;;;;2.25;0.50;;;;;;;;;;4961803;28;20051;-81
2022/02/11 09:35:29;;;;;;;1.50;0.53;;;;;;;;;;4951293;28;20521;-78
2022/02/11 09:37:59;;;;;;;1.00;0.25;;;;;;;;;;4951971;28;20047;-78
2022/02/11 09:40:28;;;;;;;1.95;0.65;;;;;;;;;;4954711;28;20047;-78
2022/02/11 09:42:57;;;;;;;1.45;0.32;;;;;;;;;;4955429;28;20113;-78
2022/02/11 09:45:27;;;;;;;1.30;0.40;;;;;;;;;;4950149;28;20047;-79
2022/02/11 09:47:56;;;;;;;0.80;0.20;;;;;;;;;;4950986;28;20633;-79
2022/02/11 09:50:25;;;;;;;1.05;0.45;;;;;;;;;;4955376;28;20051;-79
2022/02/11 09:52:54;;;;;;;1.90;1.20;;;;;;;;;;4952903;28;20561;-79
2022/02/11 09:55:37;;;;;;;2.65;0.50;;;;;;;;;;4950099;28;20408;-79
2022/02/11 09:58:07;;;;;;;2.05;0.98;;;;;;;;;;4953072;28;20050;-79
2022/02/11 10:00:36;;;;;;;1.40;0.47;;;;;;;;;;4948168;28;20232;-79
2022/02/11 10:03:07;;;;;;;1.95;0.82;;;;;;;;;;4952127;28;20040;-78
2022/02/11 10:05:37;;;;;;;0.47;0.10;;;;;;;;;;4951877;28;20048;-79
2022/02/11 10:08:06;;;;;;;6.45;1.05;;;;;;;;;;4953457;28;20050;-79
2022/02/11 10:10:47;;;;;;;3.85;0.98;;;;;;;;;;4947482;28;20046;-79
2022/02/11 10:13:19;;;;;;;2.60;0.57;;;;;;;;;;4947978;28;20043;-78
2022/02/11 10:15:52;;;;;;;2.00;0.63;;;;;;;;;;4949293;28;20059;-79
2022/02/11 10:18:25;;;;;;;3.63;0.68;;;;;;;;;;4938909;28;20039;-79
2022/02/11 10:20:56;;;;;;;1.35;0.57;;;;;;;;;;4951676;28;20043;-79
2022/02/11 10:23:26;;;;;;;5.53;0.90;;;;;;;;;;4948845;28;20051;-80
2022/02/11 10:25:59;;;;;;;3.17;0.77;;;;;;;;;;4955750;28;20068;-79
2022/02/11 10:28:35;;;;;;;3.00;1.45;;;;;;;;;;4953931;28;20070;-80
2022/02/11 10:31:35;;;;;;;1.85;0.60;;;;;;;;;;4946226;28;20075;-78
2022/02/11 10:34:07;;;;;;;4.25;1.45;;;;;;;;;;4954019;28;20036;-79
2022/02/11 10:36:39;;;;;;;1.98;0.68;;;;;;;;;;4962225;28;20058;-79
2022/02/11 10:39:56;;;;;;;1.20;0.30;;;;;;;;;;4952642;28;20039;-79
2022/02/11 10:42:42;;;;;;;1.50;0.47;;;;;;;;;;4957991;28;20071;-79
2022/02/11 10:45:28;;;;;;;3.50;0.60;;;;;;;;;;4940127;29;20070;-79
2022/02/11 10:48:10;;;;;;;4.03;1.65;;;;;;;;;;4953196;29;20044;-79
2022/02/11 10:50:40;;;;;;;1.88;0.77;;;;;;;;;;4956051;28;20166;-79
2022/02/11 10:53:12;;;;;;;3.13;1.07;;;;;;;;;;4952803;28;20054;-79
2022/02/11 10:55:50;;;;;;;2.63;0.40;;;;;;;;;;4949577;28;20123;-79
2022/02/11 10:58:22;;;;;;;3.65;0.50;;;;;;;;;;4950776;28;20043;-79
2022/02/11 11:00:51;;;;;;;1.45;0.40;;;;;;;;;;4952855;28;22153;-79
2022/02/11 11:03:21;;;;;;;0.80;0.20;;;;;;;;;;4952965;28;20047;-79
2022/02/11 11:05:51;;;;;;;2.27;0.87;;;;;;;;;;4939482;29;20473;-78
2022/02/11 11:08:20;;;;;;;0.80;0.20;;;;;;;;;;4958888;28;20066;-79
2022/02/11 11:10:49;;;;;;;3.75;0.75;;;;;;;;;;4949895;28;20462;-78
2022/02/11 11:13:20;;;;;;;2.22;0.52;;;;;;;;;;4953155;28;20054;-79
2022/02/11 11:15:52;;;;;;;2.22;0.60;;;;;;;;;;4945453;28;20083;-79
2022/02/11 11:18:21;;;;;;;2.77;1.47;;;;;;;;;;4954625;28;20443;-79
2022/02/11 11:21:00;;;;;;;3.30;0.80;;;;;;;;;;4952651;28;20048;-79
2022/02/11 11:23:31;;;;;;;1.95;0.73;;;;;;;;;;4955019;28;20043;-79
2022/02/11 11:26:06;;;;;;;3.40;0.60;;;;;;;;;;4951126;28;20122;-78
2022/02/11 11:28:46;;;;;;;1.98;0.80;;;;;;;;;;4948244;28;20050;-78
2022/02/11 11:31:17;;;;;;;5.40;0.83;;;;;;;;;;4951969;28;20054;-78
2022/02/11 11:33:47;;;;;;;1.80;0.70;;;;;;;;;;4951233;28;20406;-79
2022/02/11 11:36:16;;;;;;;3.05;0.52;;;;;;;;;;4955183;28;20140;-79
2022/02/11 11:38:46;;;;;;;5.90;0.47;;;;;;;;;;4949632;28;20087;-78
2022/02/11 11:41:19;;;;;;;2.25;0.90;;;;;;;;;;4942509;28;20054;-79
2022/02/11 11:43:51;;;;;;;1.63;0.83;;;;;;;;;;4948474;28;20044;-79
2022/02/11 11:46:25;;;;;;;1.92;0.68;;;;;;;;;;4951573;28;20055;-79
2022/02/11 11:48:55;;;;;;;1.90;1.00;;;;;;;;;;4953278;28;20169;-79
2022/02/11 11:51:25;;;;;;;1.17;0.30;;;;;;;;;;4952629;28;20052;-79
2022/02/11 11:54:09;;;;;;;2.38;0.88;;;;;;;;;;4956783;28;20048;-79
2022/02/11 11:56:39;;;;;;;2.27;0.80;;;;;;;;;;4953240;28;20106;-79
2022/02/11 11:59:18;;;;;;;3.17;1.23;;;;;;;;;;4955245;28;20193;-79
2022/02/11 12:01:55;;;;;;;0.82;0.35;;;;;;;;;;4961280;28;20694;-79
2022/02/11 12:04:28;;;;;;;1.70;0.47;;;;;;;;;;4954342;28;20122;-79
2022/02/11 12:06:57;;;;;;;1.92;0.70;;;;;;;;;;4954924;28;20047;-79
2022/02/11 12:09:28;;;;;;;3.10;1.00;;;;;;;;;;4970853;28;20051;-79
2022/02/11 12:12:00;;;;;;;6.05;0.70;;;;;;;;;;4952272;28;20043;-79
2022/02/11 12:14:32;;;;;;;1.70;0.73;;;;;;;;;;4953317;28;20063;-79
2022/02/11 12:17:02;;;;;;;6.70;1.00;;;;;;;;;;4951462;28;20138;-79
2022/02/11 12:19:31;;;;;;;1.20;0.57;;;;;;;;;;4958731;28;20699;-79
2022/02/11 12:22:06;;;;;;;2.23;1.23;;;;;;;;;;4955396;28;20043;-79
2022/02/11 12:27:49;;;;;;;5.80;1.48;;;;;;;;;;4951940;28;20043;-79
2022/02/11 12:30:23;;;;;;;1.13;0.25;;;;;;;;;;4951672;28;20118;-79
2022/02/11 12:32:56;;;;;;;1.45;0.35;;;;;;;;;;4951791;28;20035;-79
2022/02/11 12:35:26;;;;;;;1.43;0.47;;;;;;;;;;4914559;29;20074;-79
2022/02/11 12:37:55;;;;;;;3.30;0.82;;;;;;;;;;4954834;28;20068;-79
2022/02/11 12:40:28;;;;;;;1.25;0.35;;;;;;;;;;4936482;28;20051;-79
2022/02/11 12:42:58;;;;;;;1.40;0.50;;;;;;;;;;4949968;28;20773;-79
2022/02/11 12:45:31;;;;;;;0.85;0.28;;;;;;;;;;4954056;29;20054;-79
2022/02/11 12:48:01;;;;;;;5.80;0.40;;;;;;;;;;4954208;28;20051;-79
2022/02/11 12:50:31;;;;;;;0.90;0.40;;;;;;;;;;4959930;28;20494;-79
2022/02/11 12:53:01;;;;;;;3.20;0.43;;;;;;;;;;4953661;28;20040;-79
2022/02/11 12:55:35;;;;;;;1.38;0.50;;;;;;;;;;4940467;29;20494;-79
2022/02/11 12:58:06;;;;;;;2.38;0.60;;;;;;;;;;4952936;28;20043;-79
2022/02/11 13:00:37;;;;;;;1.33;0.30;;;;;;;;;;4931792;29;20103;-79
2022/02/11 13:03:10;;;;;;;1.70;1.00;;;;;;;;;;4934300;28;20048;-79
2022/02/11 13:05:42;;;;;;;2.35;0.80;;;;;;;;;;4949062;28;20574;-79
2022/02/11 13:08:11;;;;;;;1.92;0.80;;;;;;;;;;4920591;29;20047;-79
2022/02/11 13:10:48;;;;;;;3.05;0.90;;;;;;;;;;4953789;28;20051;-79
2022/02/11 13:13:18;;;;;;;0.70;0.20;;;;;;;;;;4953242;28;20042;-79
2022/02/11 13:15:49;;;;;;;5.10;0.45;;;;;;;;;;4948972;28;20557;-79
2022/02/11 13:18:19;;;;;;;1.85;0.68;;;;;;;;;;4951747;28;20093;-79
2022/02/11 13:20:49;;;;;;;0.88;0.22;;;;;;;;;;4954020;29;20057;-79
2022/02/11 13:23:20;;;;;;;1.40;1.02;;;;;;;;;;4935872;28;20039;-79
2022/02/11 13:25:49;;;;;;;0.43;0.10;;;;;;;;;;4958637;28;20102;-81
2022/02/11 13:28:20;;;;;;;7.75;0.55;;;;;;;;;;4955309;28;20051;-79
2022/02/11 13:30:57;;;;;;;1.48;0.75;;;;;;;;;;4952300;28;20055;-79
2022/02/11 13:33:27;;;;;;;6.13;0.43;;;;;;;;;;4954099;28;20048;-79
2022/02/11 13:35:56;;;;;;;4.15;0.50;;;;;;;;;;4956292;28;20144;-79
2022/02/11 13:38:26;;;;;;;4.47;0.50;;;;;;;;;;4953945;28;20054;-79
2022/02/11 13:40:55;;;;;;;1.60;0.47;;;;;;;;;;4955677;28;20142;-79
2022/02/11 13:43:25;;;;;;;1.25;0.38;;;;;;;;;;4937319;28;20055;-78
2022/02/11 13:45:55;;;;;;;8.23;0.47;;;;;;;;;;4946812;28;20051;-79
2022/02/11 13:48:29;;;;;;;1.88;0.55;;;;;;;;;;4935313;28;20055;-81
2022/02/11 13:51:00;;;;;;;3.10;0.50;;;;;;;;;;4940197;29;20039;-79
2022/02/11 13:53:30;;;;;;;1.27;0.50;;;;;;;;;;4951961;28;20053;-78
2022/02/11 13:55:59;;;;;;;1.38;0.50;;;;;;;;;;4937789;29;20068;-79
2022/02/11 13:58:28;;;;;;;0.77;0.20;;;;;;;;;;4955196;28;20207;-79
2022/02/11 14:01:28;;;;;;;6.15;0.40;;;;;;;;;;4959055;28;20102;-79
2022/02/11 14:04:23;;;;;;;0.93;0.30;;;;;;;;;;4962402;28;20053;-79
2022/02/11 14:07:35;;;;;;;1.83;0.25;;;;;;;;;;4939449;28;20051;-79
2022/02/11 14:10:27;;;;;;;0.73;0.32;;;;;;;;;;4943827;29;20043;-79
2022/02/11 14:13:13;;;;;;;1.50;0.60;;;;;;;;;;4965391;28;20103;-80
2022/02/11 14:16:24;;;;;;;1.90;0.68;;;;;;;;;;4940803;29;20113;-80
2022/02/11 14:18:58;;;;;;;1.37;0.40;;;;;;;;;;4954707;28;20074;-80
2022/02/11 14:21:32;;;;;;;2.13;0.65;;;;;;;;;;4942411;29;20043;-79
2022/02/11 14:24:16;;;;;;;1.27;0.47;;;;;;;;;;4943423;28;20573;-79
2022/02/11 14:26:52;;;;;;;0.90;0.28;;;;;;;;;;4924894;29;20054;-79
2022/02/11 14:29:34;;;;;;;0.70;0.20;;;;;;;;;;4962290;28;20047;-79
2022/02/11 14:32:32;;;;;;;7.77;0.83;;;;;;;;;;4944401;29;20048;-79
2022/02/11 14:35:29;;;;;;;4.68;0.52;;;;;;;;;;4937599;28;20059;-79
2022/02/11 14:38:08;;;;;;;0.60;0.20;;;;;;;;;;4960082;28;20040;-80
2022/02/11 14:41:46;;;;;;;4.13;0.80;;;;;;;;;;4956837;28;20043;-80
2022/02/11 14:43:42;;;;;;;3.33;0.70;;;;;;;;;;4956039;28;20379;-79
2022/02/11 14:46:46;;;;;;;1.40;0.50;;;;;;;;;;4550797;27;15982111;-79
2022/02/11 14:49:26;;;;;;;1.07;0.30;;;;;;;;;;5097608;28;20072;-81
2022/02/11 14:55:55;;;;;;;2.95;0.85;;;;;;;;;;5090733;28;20032;-80
2022/02/11 15:05:25;;;;;;;2.27;0.77;;;;;;;;;;5088019;28;20060;-79
2022/02/11 15:07:58;;;;;;;3.15;1.05;;;;;;;;;;5099050;28;20040;-80
2022/02/11 15:10:29;;;;;;;1.50;0.40;;;;;;;;;;5096725;28;20040;-81
2022/02/11 15:13:32;;;;;;;6.65;1.15;;;;;;;;;;5085827;28;20036;-80
2022/02/11 15:16:16;;;;;;;0.68;0.20;;;;;;;;;;5093052;28;20057;-81
2022/02/11 15:18:54;;;;;;;1.80;0.50;;;;;;;;;;5077795;28;20713;-80
2022/02/11 15:21:27;;;;;;;1.67;0.40;;;;;;;;;;5083100;28;20070;-80
2022/02/11 15:24:06;;;;;;;2.17;0.55;;;;;;;;;;5080497;28;20043;-80
2022/02/11 15:32:56;;;;;;;2.00;0.40;;;;;;;;;;5082147;28;20048;-80
2022/02/11 15:35:33;;;;;;;3.28;1.30;;;;;;;;;;5086567;28;20036;-80
2022/02/11 15:38:15;;;;;;;1.10;0.30;;;;;;;;;;5106823;28;20040;-80
2022/02/11 15:40:57;;;;;;;2.15;0.45;;;;;;;;;;5081491;28;20049;-80
2022/02/11 15:44:01;;;;;;;0.75;0.35;;;;;;;;;;5071594;28;20055;-80
2022/02/11 15:47:02;;;;;;;1.03;0.30;;;;;;;;;;5059661;28;20049;-80
2022/02/11 15:49:59;;;;;;;2.42;0.82;;;;;;;;;;5086475;28;20111;-80
2022/02/11 15:52:31;;;;;;;5.35;0.50;;;;;;;;;;5111969;28;20037;-80
2022/02/11 15:55:11;;;;;;;3.50;0.47;;;;;;;;;;5094245;28;20115;-79
2022/02/11 15:57:52;;;;;;;1.17;0.40;;;;;;;;;;5064196;28;20040;-80
2022/02/11 16:04:29;;;;;;;0.93;0.30;;;;;;;;;;5062206;28;20055;-80
2022/02/11 16:07:34;;;;;;;2.45;0.30;;;;;;;;;;5085331;28;20036;-80
2022/02/11 16:10:13;;;;;;;2.05;0.75;;;;;;;;;;5051169;28;20669;-80
2022/02/11 16:13:00;;;;;;;1.25;0.30;;;;;;;;;;5085235;28;20077;-80
2022/02/11 16:15:48;;;;;;;1.73;0.40;;;;;;;;;;5089647;28;20052;-80
2022/02/11 16:18:26;;;;;;;2.08;0.60;;;;;;;;;;5068886;28;20040;-80
2022/02/11 16:24:03;;;;;;;3.47;1.60;;;;;;;;;;5066375;28;20041;-80
2022/02/11 16:26:42;;;;;;;5.72;0.80;;;;;;;;;;5078508;28;20052;-81
2022/02/11 16:29:43;;;;;;;;;;;;;;;;;;;;;
2022/02/11 16:35:38;;;;;;;1.25;0.32;;;;;;;;;;5055456;28;20029;-80
2022/02/11 16:41:42;;;;;;;1.02;0.30;;;;;;;;;;5038955;28;20055;-79
2022/02/11 16:47:42;;;;;;;5.53;1.77;;;;;;;;;;5086565;28;20080;-80
2022/02/11 16:50:11;;;;;;;3.88;0.80;;;;;;;;;;5068249;28;20087;-79
2022/02/11 16:52:40;;;;;;;3.22;0.95;;;;;;;;;;5074264;28;20059;-79
2022/02/11 16:55:10;;;;;;;1.35;0.30;;;;;;;;;;5077500;28;20071;-79
2022/02/11 16:57:40;;;;;;;0.80;0.20;;;;;;;;;;5075037;28;20071;-77
2022/02/11 17:00:13;;;;;;;1.25;0.25;;;;;;;;;;5071833;28;20052;-78
2022/02/11 17:03:07;;;;;;;3.53;1.58;;;;;;;;;;5070865;28;20058;-76
2022/02/11 17:05:36;;;;;;;2.72;1.08;;;;;;;;;;5074030;28;20067;-77
2022/02/11 17:08:06;;;;;;;2.88;0.98;;;;;;;;;;5084854;28;20043;-81
2022/02/11 17:10:38;;;;;;;1.20;0.50;;;;;;;;;;5098359;28;20120;-81
2022/02/11 17:13:31;;;;;;;2.33;0.70;;;;;;;;;;5077715;28;20039;-80
2022/02/11 17:16:02;;;;;;;3.67;0.77;;;;;;;;;;5078645;28;20072;-81
2022/02/11 17:18:32;;;;;;;1.20;0.40;;;;;;;;;;5061719;28;20045;-79
2022/02/11 17:21:02;;;;;;;5.30;1.38;;;;;;;;;;5059889;28;20045;-79
2022/02/11 17:23:31;;;;;;;3.33;1.00;;;;;;;;;;5076289;28;20036;-77
2022/02/11 17:26:00;;;;;;;9.57;1.27;;;;;;;;;;5070265;28;20060;-77
2022/02/11 17:28:31;;;;;;;2.22;0.68;;;;;;;;;;5034179;28;20410;-77
2022/02/11 17:31:01;;;;;;;1.35;0.57;;;;;;;;;;5061365;28;20049;-76
2022/02/11 17:33:30;;;;;;;3.45;1.08;;;;;;;;;;5066524;28;20135;-77
2022/02/11 17:36:01;;;;;;;2.83;1.20;;;;;;;;;;5069071;28;20041;-77
2022/02/11 17:38:31;;;;;;;2.38;0.40;;;;;;;;;;5066082;28;20064;-77
2022/02/11 17:41:00;;;;;;;3.40;0.68;;;;;;;;;;5064379;28;20036;-77
2022/02/11 17:43:29;;;;;;;1.27;0.60;;;;;;;;;;5069042;28;20040;-77
2022/02/11 17:45:58;;;;;;;1.85;0.70;;;;;;;;;;5050443;28;20539;-77
2022/02/11 17:48:29;;;;;;;1.30;0.47;;;;;;;;;;5025990;28;20068;-79
2022/02/11 17:50:58;;;;;;;6.32;0.82;;;;;;;;;;5010523;28;20049;-78
2022/02/11 17:53:27;;;;;;;2.15;0.55;;;;;;;;;;5008450;28;20045;-77
2022/02/11 17:55:56;;;;;;;2.22;0.90;;;;;;;;;;5030086;28;20041;-77
2022/02/11 17:58:28;;;;;;;2.13;0.80;;;;;;;;;;5026410;28;20053;-77
2022/02/11 18:00:58;;;;;;;2.37;1.03;;;;;;;;;;5025476;28;20045;-77
2022/02/11 18:03:28;;;;;;;5.82;2.17;;;;;;;;;;5006925;28;20168;-77
2022/02/11 18:06:24;;;;;;;2.67;1.42;;;;;;;;;;5023828;28;20045;-77
2022/02/11 18:08:53;;;;;;;3.20;0.55;;;;;;;;;;5022984;28;20128;-76
2022/02/11 18:11:21;;;;;;;2.30;1.13;;;;;;;;;;5005853;28;20076;-77
2022/02/11 18:13:53;;;;;;;2.93;0.83;;;;;;;;;;5026529;28;20124;-77
2022/02/11 18:16:23;;;;;;;2.70;1.02;;;;;;;;;;4987726;28;20115;-77
2022/02/11 18:18:53;;;;;;;1.42;0.77;;;;;;;;;;5025530;28;20043;-77
2022/02/11 18:21:23;;;;;;;1.23;0.43;;;;;;;;;;5034378;28;20053;-78
2022/02/11 18:45:28;;;;;;;8.00;0.93;;;;;;;;;;4985450;23;20051;-79
2022/02/11 18:48:36;;;;;;;4.93;1.30;;;;;;;;;;4940797;28;20070;-80
2022/02/11 19:00:42;;;;;;;6.82;0.40;;;;;;;;;;4951672;29;20145;-79
2022/02/11 19:07:37;;;;;;;1.45;0.38;;;;;;;;;;4933031;28;20044;-81
2022/02/11 19:10:09;;;;;;;1.00;0.60;;;;;;;;;;4960258;28;20043;-79
2022/02/11 19:12:38;;;;;;;1.17;0.47;;;;;;;;;;4956188;29;20072;-79
2022/02/11 19:15:09;;;;;;;4.88;0.63;;;;;;;;;;4933428;28;20058;-80
2022/02/11 19:17:40;;;;;;;1.15;0.50;;;;;;;;;;4962306;29;20111;-79
2022/02/11 19:20:10;;;;;;;2.45;1.15;;;;;;;;;;4964918;28;20078;-79
2022/02/11 19:22:40;;;;;;;3.22;0.40;;;;;;;;;;4947213;29;20040;-81
2022/02/11 19:25:18;;;;;;;1.33;0.47;;;;;;;;;;4945867;29;20442;-79
2022/02/11 19:27:49;;;;;;;7.40;0.68;;;;;;;;;;4949183;29;20109;-79
2022/02/11 19:30:19;;;;;;;8.52;1.33;;;;;;;;;;4968334;28;20035;-81
2022/02/11 19:32:52;;;;;;;2.55;0.80;;;;;;;;;;4972694;29;20039;-80
2022/02/11 19:35:30;;;;;;;3.70;1.13;;;;;;;;;;4956961;29;20044;-81
2022/02/11 19:37:59;;;;;;;1.13;0.77;;;;;;;;;;4958294;29;20051;-80
2022/02/11 19:40:30;;;;;;;3.72;0.70;;;;;;;;;;4978464;28;20046;-80
2022/02/11 19:43:01;;;;;;;1.45;0.43;;;;;;;;;;4971902;28;20039;-80
2022/02/11 19:45:30;;;;;;;2.67;0.47;;;;;;;;;;4977936;28;20071;-81
2022/02/11 19:48:01;;;;;;;3.88;0.65;;;;;;;;;;4979500;28;20057;-81
2022/02/11 19:50:30;;;;;;;3.10;0.67;;;;;;;;;;4974877;28;20031;-81
2022/02/11 19:53:22;;;;;;;1.33;0.98;;;;;;;;;;4973490;28;20031;-80
2022/02/11 20:07:43;;;;;;;2.77;1.47;;;;;;;;;;4905142;29;20053;-81
2022/02/11 20:13:23;;;;;;;2.20;0.98;;;;;;;;;;4920681;29;20051;-80
2022/02/11 20:16:06;;;;;;;2.30;1.23;;;;;;;;;;4906429;29;20035;-82
2022/02/11 20:27:05;;;;;;;1.38;0.50;;;;;;;;;;4879203;29;20123;-81
2022/02/11 20:30:40;;;;;;;2.88;0.55;;;;;;;;;;4873279;29;20101;-80
2022/02/11 21:01:23;;;;;;;1.30;0.50;;;;;;;;;;6236964;23;20031;-81
2022/02/11 21:04:27;;;;;;;1.85;0.95;;;;;;;;;;6272413;23;20035;-82